Have a Safe July 4th! 

Flight Track Log - Related Links

Times and Time Zones

All times are in EDT time to prevent confusion due to time zone crossing. See the RPA3392 flight status page for this flight to view local times or setup timezone preferences in your user account.

Time Position Orientation Groundspeed Altitude Reporting Facility
EDT Latitude Longitude Course Direction KTS MPH feet Rate Location/Type
Thu 10:42:03 PM 38.9103 -77.0989 47° Northeast 179 206 2,700  Level Washington Center
Thu 10:43:03 PM 38.9678 -77.1642 319° Northwest 229 264 4,700 2,705 Climbing Washington Center
Thu 10:44:00 PM 39.2244 -76.7473 83° East  Level Estimated
Thu 10:44:05 PM 39.0294 -77.2322 319° Northwest 283 326 8,200  Level Washington Center
Thu 10:45:00 PM 39.3174 -76.6743 81° East  Level Estimated
Thu 10:45:03 PM 39.0964 -77.2069 16° North 236 272 10,000  Level Washington Center
Thu 10:46:00 PM 39.4104 -76.6010 47° Northeast  Level Estimated
Thu 10:46:05 PM 39.0622 -77.1208 117° Southeast 146 168 12,200  Level Washington Center
Thu 10:47:05 PM 39.0531 -77.0189 97° East 225 259 14,700 2,186 Climbing Washington Center
Thu 10:48:03 PM 39.0647 -76.9042 83° East 265 305 16,500 1,613 Climbing Washington Center
Thu 10:49:04 PM 39.0722 -76.7733 86° East 326 375 17,900 1,450 Climbing Washington Center
Thu 10:50:03 PM 39.0669 -76.6664 94° East 348 400 19,400 1,815 Climbing Washington Center
Thu 10:51:03 PM 39.0600 -76.5167 93° East 369 425 21,500 1,191 Climbing Washington Center
Thu 10:56:56 PM 39.2790 -75.7680 93° East 100 115 27,600 1,059 Climbing FlightAware ADS-B
Thu 10:57:51 PM 39.3570 -75.6680 45° Northeast 423 487 28,700 1,129 Climbing FlightAware ADS-B
Thu 10:58:21 PM 39.3980 -75.6180 43° Northeast 429 494 29,200 1,116 Climbing FlightAware ADS-B
Thu 10:59:17 PM 39.4740 -75.5270 43° Northeast 417 480 30,300 1,125 Climbing FlightAware ADS-B
Thu 10:59:57 PM 39.5290 -75.4570 44° Northeast 421 484 31,000 609 Climbing FlightAware ADS-B
Thu 11:00:26 PM 39.5770 -75.3970 44° Northeast 425 489 31,000  Level FlightAware ADS-B
Thu 11:01:19 PM 39.6420 -75.3180 43° Northeast 424 488 31,000  Level FlightAware ADS-B
Thu 11:01:56 PM 39.6880 -75.2630 43° Northeast 424 488 31,000  Level FlightAware ADS-B
Thu 11:02:32 PM 39.7320 -75.2100 43° Northeast 424 488 31,000  Level FlightAware ADS-B
Thu 11:03:06 PM 39.8000 -75.1200 45° Northeast 424 488 31,000  Level FlightAware ADS-B
Thu 11:03:12 PM 39.8030 -75.1150 52° Northeast 424 488 31,000  Level FlightAware ADS-B
Thu 11:03:52 PM 39.8000 -75.0290 93° East 424 488 31,000  Level FlightAware ADS-B
Thu 11:04:21 PM 39.9100 -74.9840 17° North 424 488 31,000  Level FlightAware ADS-B
Thu 11:04:56 PM 39.9610 -74.9200 44° Northeast 420 483 31,000  Level FlightAware ADS-B
Thu 11:05:51 PM 40.0400 -74.8220 44° Northeast 427 491 31,000  Level FlightAware ADS-B
Thu 11:06:26 PM 40.0890 -74.7600 44° Northeast 424 488 31,000  Level FlightAware ADS-B
Thu 11:07:06 PM 40.1360 -74.7010 44° Northeast 424 488 31,000  Level FlightAware ADS-B
Thu 11:07:41 PM 40.1950 -74.6250 45° Northeast 424 488 31,000  Level FlightAware ADS-B
Thu 11:08:26 PM 40.2580 -74.5450 44° Northeast 432 497 31,000  Level FlightAware ADS-B
Thu 11:08:41 PM 40.2770 -74.5200 45° Northeast 431 496 31,000  Level FlightAware ADS-B
Thu 11:08:51 PM 40.2940 -74.4990 43° Northeast 431 496 31,000  Level FlightAware ADS-B
Thu 11:09:31 PM 40.3460 -74.4420 40° Northeast 431 496 31,000  Level FlightAware ADS-B
Thu 11:10:14 PM 40.4060 -74.3570 47° Northeast 429 494 31,000  Level FlightAware ADS-B
Thu 11:10:50 PM 40.4490 -74.3020 44° Northeast 429 494 31,000  Level FlightAware ADS-B
Thu 11:11:22 PM 40.4880 -74.2520 44° Northeast 429 494 31,000  Level FlightAware ADS-B
Thu 11:11:58 PM 40.5320 -74.1970 44° Northeast 429 494 31,000  Level FlightAware ADS-B
Thu 11:12:34 PM 40.5760 -74.1410 44° Northeast 429 494 31,000  Level FlightAware ADS-B
Thu 11:13:10 PM 40.6190 -74.0860 44° Northeast 429 494 31,000  Level FlightAware ADS-B
Thu 11:13:46 PM 40.6630 -74.0300 44° Northeast 429 494 31,000  Level FlightAware ADS-B
Thu 11:14:22 PM 40.7070 -73.9750 43° Northeast 429 494 31,000  Level FlightAware ADS-B
Thu 11:14:59 PM 40.7510 -73.9170 45° Northeast 429 494 31,000  Level FlightAware ADS-B
Thu 11:15:35 PM 40.7950 -73.8620 43° Northeast 429 494 31,000  Level FlightAware ADS-B
Thu 11:16:11 PM 40.8390 -73.8060 44° Northeast 429 494 31,000  Level FlightAware ADS-B
Thu 11:16:47 PM 40.8830 -73.7500 44° Northeast 429 494 31,000  Level FlightAware ADS-B
Thu 11:17:23 PM 40.9260 -73.6940 45° Northeast 429 494 31,000  Level FlightAware ADS-B
Thu 11:18:00 PM 40.9710 -73.6370 44° Northeast 429 494 31,000  Level FlightAware ADS-B
Thu 11:18:36 PM 41.0150 -73.5810 44° Northeast 429 494 31,000  Level FlightAware ADS-B
Thu 11:19:12 PM 41.0580 -73.5250 44° Northeast 429 494 31,000 -4,449 Level FlightAware ADS-B
Thu 11:20:05 PM 41.5842 -74.0692 44° Northeast 408 470 24,400 -4,714 Descending Boston Center
Thu 11:21:04 PM 41.6931 -74.0442 10° North 401 461 22,200 -2,308 Descending Boston Center
Thu 11:22:02 PM 41.7933 -74.0217 North 385 443 19,900 -2,218 Descending Boston Center
Thu 11:23:03 PM 41.8978 -73.9964 10° North 372 428 17,800 -2,121 Descending Boston Center
Thu 11:23:41 PM 41.9542 -73.9839 North 364 419 16,400 -2,261 Descending Boston Center
Thu 11:24:12 PM 42.0067 -73.9683 12° North 359 413 15,200 -2,458 Descending Boston Center
Thu 11:25:04 PM 42.0903 -73.9453 12° North 356 410 13,000 -2,557 Descending Boston Center
Thu 11:25:13 PM 42.1050 -73.9456 359° North 355 409 12,600 -2,300 Descending Boston Center
Thu 11:26:04 PM 42.1761 -73.9219 14° North 351 404 10,700 -2,237 Descending Boston Center
Thu 11:26:12 PM 42.1989 -73.9225 359° North 348 400 10,400 -800 Descending Boston Center
Thu 11:27:04 PM 42.2703 -73.8992 14° North 323 372 9,900 -656 Descending Boston Center
Thu 11:27:16 PM 42.2806 -73.8992 360° North 286 329 9,700 -1,525 Descending Boston Center
Thu 11:28:03 PM 42.3392 -73.8839 11° North 287 330 8,400 -1,500 Descending Boston Center
Thu 11:28:16 PM 42.3622 -73.8786 10° North 271 312 8,200 -1,220 Descending Boston Center
Thu 11:29:02 PM 42.4144 -73.8631 12° North 261 300 7,200 -1,448 Descending Boston Center
Thu 11:29:14 PM 42.4289 -73.8606 North 234 269 6,800 -1,452 Descending Boston Center
Thu 11:30:04 PM 42.4708 -73.8503 10° North 233 268 5,700 -1,548 Descending Boston Center
Thu 11:30:16 PM 42.4897 -73.8478 North 216 249 5,200 -1,397 Descending Boston Center
Thu 11:31:17 PM 42.5503 -73.8239 16° North 221 254 4,000 -1,220 Descending Boston Center
Thu 11:32:19 PM 42.6069 -73.8053 14° North 222 255 2,700 -1,065 Descending Boston Center
Thu 11:33:04 PM 42.6464 -73.8033 North 215 247 2,100 -1,000 Descending Boston Center
Thu 11:33:19 PM 42.6631 -73.8039 359° North 194 223 1,700 -393 Descending Boston Center
Thu 11:34:05 PM 42.7092 -73.7936 North 215 247 1,700 -806 Level Boston Center
Thu 11:34:26 PM 42.7089 -73.8075 268° West 130 150 800 -2,571 Descending Boston Center

Login

Don't have an account? Register now (free) for customized features, flight alerts, and more!